createdAt,value
2023-01-04T00:01:42.905Z,20.70
2023-01-04T00:04:13.474Z,20.80
2023-01-04T00:06:43.813Z,20.90
2023-01-04T00:09:14.295Z,21.10
2023-01-04T00:11:44.560Z,21.20
2023-01-04T00:14:15.719Z,21.40
2023-01-04T00:16:46.539Z,21.50
2023-01-04T00:19:17.384Z,21.50
2023-01-04T00:21:48.125Z,21.50
2023-01-04T00:24:19.163Z,21.50
2023-01-04T00:26:50.209Z,21.40
2023-01-04T00:29:21.469Z,21.40
2023-01-04T00:31:52.359Z,21.50
2023-01-04T00:34:26.154Z,21.40
2023-01-04T00:36:56.886Z,21.40
2023-01-04T00:39:28.057Z,21.40
2023-01-04T00:42:09.044Z,21.50
2023-01-04T00:44:39.457Z,21.60
2023-01-04T00:47:09.821Z,21.60
2023-01-04T00:49:40.129Z,21.50
2023-01-04T00:52:10.553Z,21.60
2023-01-04T00:54:41.012Z,21.60
2023-01-04T00:57:11.357Z,21.60
2023-01-04T00:59:41.724Z,21.60
2023-01-04T01:05:28.595Z,21.80
2023-01-04T01:07:59.033Z,21.80
2023-01-04T01:10:29.597Z,21.90
2023-01-04T01:13:00.023Z,21.90
2023-01-04T01:15:30.550Z,21.80
2023-01-04T01:18:01.349Z,21.90
2023-01-04T01:20:31.899Z,21.80
2023-01-04T01:23:02.246Z,21.80
2023-01-04T01:25:35.436Z,21.80
2023-01-04T01:28:05.814Z,21.80
2023-01-04T01:30:36.306Z,21.70
2023-01-04T01:33:06.652Z,21.70
2023-01-04T01:35:38.039Z,21.70
2023-01-04T01:38:08.666Z,21.80
2023-01-04T01:40:47.212Z,21.90
2023-01-04T01:43:45.393Z,22.10
2023-01-04T01:46:17.357Z,22.30
2023-01-04T01:48:48.151Z,22.40
2023-01-04T01:51:21.241Z,22.50
2023-01-04T01:53:56.520Z,22.50
2023-01-04T01:56:29.812Z,22.50
2023-01-04T01:59:02.185Z,22.60
2023-01-04T02:01:32.829Z,22.60
2023-01-04T02:04:03.607Z,22.70
2023-01-04T02:06:42.288Z,22.90
2023-01-04T02:09:12.912Z,23.10
2023-01-04T02:11:43.354Z,23.30
2023-01-04T02:14:30.405Z,23.40
2023-01-04T02:17:30.438Z,23.60
2023-01-04T02:20:07.204Z,23.70
2023-01-04T02:23:12.896Z,24.10
2023-01-04T02:26:05.246Z,24.50
2023-01-04T02:28:57.092Z,24.90
2023-01-04T02:31:39.321Z,25.20
2023-01-04T02:34:38.416Z,25.40
2023-01-04T02:37:20.828Z,25.40
2023-01-04T02:40:25.316Z,25.60
2023-01-04T02:43:27.096Z,25.90
2023-01-04T02:46:14.307Z,26.20
2023-01-04T02:49:04.177Z,26.40
2023-01-04T02:51:40.623Z,26.70
2023-01-04T02:54:18.198Z,26.90
2023-01-04T02:57:24.082Z,26.90
2023-01-04T03:00:03.713Z,27.00
2023-01-04T03:03:07.680Z,27.00
2023-01-04T03:06:20.489Z,26.90
2023-01-04T03:09:08.871Z,26.70
2023-01-04T03:12:23.781Z,26.70
2023-01-04T03:15:02.865Z,26.90
2023-01-04T03:18:06.747Z,26.90
2023-01-04T03:20:38.640Z,26.80
2023-01-04T03:23:35.092Z,26.70
2023-01-04T03:26:31.684Z,26.50
2023-01-04T03:29:28.077Z,26.20
2023-01-04T03:32:57.254Z,26.30
2023-01-04T03:36:02.164Z,26.60
2023-01-04T03:39:14.410Z,26.90
2023-01-04T03:42:09.547Z,27.20
2023-01-04T03:45:09.827Z,27.40
2023-01-04T03:48:37.314Z,27.50
2023-01-04T03:51:23.753Z,27.20
2023-01-04T03:54:19.165Z,26.80
2023-01-04T03:56:51.881Z,26.40
2023-01-04T03:59:25.056Z,26.10
2023-01-04T04:01:56.710Z,25.60
2023-01-04T04:04:46.380Z,25.30
2023-01-04T04:07:34.897Z,25.10
2023-01-04T04:10:06.375Z,24.90
2023-01-04T04:12:37.941Z,24.70
2023-01-04T04:15:10.115Z,24.70
2023-01-04T04:17:40.864Z,24.70
2023-01-04T04:20:13.847Z,24.70
2023-01-04T04:22:44.777Z,24.90
2023-01-04T04:25:16.891Z,24.90
2023-01-04T04:27:47.596Z,25.10
2023-01-04T04:30:19.688Z,25.00
2023-01-04T04:32:50.403Z,24.80
2023-01-04T04:35:22.248Z,24.60
2023-01-04T04:37:56.045Z,24.30
2023-01-04T04:40:44.727Z,24.20
2023-01-04T04:43:14.941Z,24.00
2023-01-04T04:45:45.813Z,23.70
2023-01-04T04:48:17.674Z,23.30
2023-01-04T04:50:48.345Z,23.10
2023-01-04T04:53:19.593Z,22.90
2023-01-04T04:55:52.998Z,22.80
2023-01-04T04:58:24.239Z,22.70
2023-01-04T05:00:55.442Z,22.40
2023-01-04T05:03:26.288Z,22.10
2023-01-04T05:05:57.337Z,21.40
2023-01-04T05:08:28.208Z,20.90
2023-01-04T05:10:58.890Z,20.40
2023-01-04T05:13:29.832Z,20.20
2023-01-04T05:16:00.525Z,20.00
2023-01-04T05:18:31.310Z,19.90
2023-01-04T05:21:04.929Z,19.80
2023-01-04T05:23:35.560Z,19.80
2023-01-04T05:26:07.553Z,19.80
2023-01-04T05:28:38.188Z,19.70
2023-01-04T05:31:08.753Z,19.60
2023-01-04T05:33:39.474Z,19.60
2023-01-04T05:36:10.101Z,19.50
2023-01-04T05:38:40.993Z,19.50
2023-01-04T05:41:31.416Z,19.60
2023-01-04T05:44:02.282Z,19.60
2023-01-04T05:46:33.455Z,19.60
2023-01-04T05:49:04.220Z,19.60
2023-01-04T05:51:34.919Z,19.60
2023-01-04T05:54:05.867Z,19.60
2023-01-04T05:56:36.482Z,19.60
2023-01-04T05:59:07.318Z,19.60
2023-01-04T06:01:39.137Z,19.60
2023-01-04T06:04:10.851Z,19.60
2023-01-04T06:06:42.677Z,19.60
2023-01-04T06:09:13.292Z,19.50
2023-01-04T06:11:45.809Z,19.40
2023-01-04T06:14:16.741Z,19.30
2023-01-04T06:16:48.839Z,19.30
2023-01-04T06:19:21.424Z,19.30
2023-01-04T06:21:52.413Z,19.20
2023-01-04T06:24:25.181Z,19.10
2023-01-04T06:26:56.108Z,19.10
2023-01-04T06:29:27.012Z,19.00
2023-01-04T06:31:58.275Z,19.00
2023-01-04T06:34:31.480Z,19.00
2023-01-04T06:37:02.553Z,19.00
2023-01-04T06:39:33.246Z,19.00
2023-01-04T06:42:06.884Z,19.00
2023-01-04T06:44:38.376Z,18.90
2023-01-04T06:47:10.036Z,18.80
2023-01-04T06:49:41.735Z,18.80
2023-01-04T06:52:12.350Z,18.80
2023-01-04T06:54:43.504Z,18.80
2023-01-04T06:57:14.605Z,18.80
2023-01-04T06:59:47.288Z,18.70
2023-01-04T07:02:19.057Z,18.70
2023-01-04T07:04:51.223Z,18.60
2023-01-04T07:07:23.268Z,18.50
2023-01-04T07:09:54.991Z,18.40
2023-01-04T07:12:26.500Z,18.30
2023-01-04T07:14:57.224Z,18.30
2023-01-04T07:17:30.130Z,18.30
2023-01-04T07:20:02.880Z,18.20
2023-01-04T07:22:35.027Z,18.20
2023-01-04T07:25:05.932Z,18.20
2023-01-04T07:27:37.007Z,18.20
2023-01-04T07:30:08.825Z,18.20
2023-01-04T07:32:39.578Z,18.30
2023-01-04T07:35:10.542Z,18.30
2023-01-04T07:37:42.369Z,18.30
2023-01-04T07:40:13.911Z,18.20
2023-01-04T07:42:44.625Z,18.20
2023-01-04T07:45:17.523Z,18.20
2023-01-04T07:47:48.893Z,18.20
2023-01-04T07:50:19.621Z,18.20
2023-01-04T07:52:51.799Z,18.20
2023-01-04T07:55:23.678Z,18.20
2023-01-04T07:57:56.843Z,18.10
2023-01-04T08:00:27.576Z,18.00
2023-01-04T08:03:00.359Z,18.00
2023-01-04T08:05:31.114Z,18.00
2023-01-04T08:08:02.287Z,18.00
2023-01-04T08:10:32.664Z,18.10
2023-01-04T08:13:03.408Z,18.00
2023-01-04T08:15:35.808Z,18.10
2023-01-04T08:18:08.522Z,18.00
2023-01-04T08:20:42.438Z,18.00
2023-01-04T08:23:13.313Z,18.00
2023-01-04T08:25:45.471Z,18.00
2023-01-04T08:28:16.158Z,17.90
2023-01-04T08:30:47.121Z,17.80
2023-01-04T08:33:19.472Z,17.90
2023-01-04T08:35:50.435Z,17.90
2023-01-04T08:38:59.496Z,17.80
2023-01-04T08:41:56.077Z,17.80
2023-01-04T08:44:17.467Z,17.80
2023-01-04T08:46:49.332Z,17.80
2023-01-04T08:49:20.942Z,17.80
2023-01-04T08:51:54.121Z,17.80
2023-01-04T08:54:26.470Z,17.80
2023-01-04T08:56:58.289Z,17.70
2023-01-04T08:59:28.991Z,17.70
2023-01-04T09:02:05.276Z,17.70
2023-01-04T09:04:36.056Z,17.70
2023-01-04T09:07:07.787Z,17.60
2023-01-04T09:09:38.969Z,17.70
2023-01-04T09:12:09.943Z,17.60
2023-01-04T09:14:41.798Z,17.70
2023-01-04T09:17:12.585Z,17.60
2023-01-04T09:19:42.964Z,17.60
2023-01-04T09:22:13.779Z,17.60
2023-01-04T09:24:44.194Z,17.60
2023-01-04T09:27:14.691Z,17.50
2023-01-04T09:29:45.288Z,17.50
2023-01-04T09:32:16.920Z,17.50
2023-01-04T09:34:48.193Z,17.40
2023-01-04T09:37:18.914Z,17.40
2023-01-04T09:39:49.363Z,17.40
2023-01-04T09:42:42.362Z,17.30
2023-01-04T09:45:24.161Z,17.30
2023-01-04T09:47:58.522Z,17.30
2023-01-04T09:50:44.125Z,17.20
2023-01-04T09:53:31.007Z,17.20
2023-01-04T09:56:25.684Z,17.10
2023-01-04T09:58:57.448Z,17.00
2023-01-04T10:01:38.138Z,16.90
2023-01-04T10:04:32.175Z,17.00
2023-01-04T10:07:05.233Z,16.90
2023-01-04T10:09:37.058Z,16.90
2023-01-04T10:12:40.249Z,16.80
2023-01-04T10:15:39.509Z,16.80
2023-01-04T10:21:34.700Z,16.70
2023-01-04T10:24:17.676Z,16.70
2023-01-04T10:26:53.475Z,16.60
2023-01-04T10:29:50.637Z,16.60
2023-01-04T10:32:53.264Z,16.50
2023-01-04T10:35:27.714Z,16.40
2023-01-04T10:38:02.910Z,16.30
2023-01-04T10:40:42.364Z,16.20
2023-01-04T10:44:09.975Z,16.20
2023-01-04T10:46:59.476Z,16.10
2023-01-04T10:49:51.210Z,16.10
2023-01-04T10:53:16.660Z,16.20
2023-01-04T10:56:26.118Z,16.20
2023-01-04T10:59:13.741Z,16.20
2023-01-04T11:01:47.063Z,16.20
2023-01-04T11:04:46.818Z,16.10
2023-01-04T11:07:28.684Z,16.10
2023-01-04T11:10:25.563Z,16.00
2023-01-04T11:12:57.950Z,16.00
2023-01-04T11:15:29.006Z,16.00
2023-01-04T11:18:00.397Z,15.90
2023-01-04T11:20:36.116Z,15.80
2023-01-04T11:23:15.283Z,15.80
2023-01-04T11:26:08.184Z,15.80
2023-01-04T11:29:12.334Z,15.70
2023-01-04T11:31:51.284Z,15.70
2023-01-04T11:34:21.807Z,15.60
2023-01-04T11:36:52.106Z,15.60
2023-01-04T11:39:29.449Z,15.60
2023-01-04T11:42:03.658Z,15.60
2023-01-04T11:44:35.916Z,15.60
2023-01-04T11:47:23.364Z,15.60
2023-01-04T11:49:55.601Z,15.60
2023-01-04T11:52:38.460Z,15.60
2023-01-04T11:55:29.024Z,15.60
2023-01-04T11:58:10.493Z,15.60
2023-01-04T12:00:42.027Z,15.50
2023-01-04T12:03:34.875Z,15.60
2023-01-04T12:06:05.680Z,15.50
2023-01-04T12:08:37.564Z,15.60
2023-01-04T12:11:09.399Z,15.60
2023-01-04T12:13:41.348Z,15.50
2023-01-04T12:16:20.559Z,15.50
2023-01-04T12:18:51.199Z,15.50
2023-01-04T12:21:25.670Z,15.50
2023-01-04T12:23:58.912Z,15.60
2023-01-04T12:26:30.155Z,15.60
2023-01-04T12:29:24.709Z,15.70
2023-01-04T12:32:14.632Z,15.70
2023-01-04T12:34:47.993Z,15.70
2023-01-04T12:37:51.299Z,15.70
2023-01-04T12:40:49.500Z,15.70
2023-01-04T12:43:19.890Z,15.70
2023-01-04T12:46:10.527Z,15.70
2023-01-04T12:48:58.936Z,15.70
2023-01-04T12:51:31.510Z,15.70
2023-01-04T12:54:24.310Z,15.70
2023-01-04T12:57:37.340Z,15.70
2023-01-04T13:00:13.206Z,15.70
2023-01-04T13:02:54.081Z,15.60
2023-01-04T13:05:54.851Z,15.60
2023-01-04T13:08:17.063Z,15.70
2023-01-04T13:10:53.239Z,15.70
2023-01-04T13:13:38.492Z,15.60
2023-01-04T13:16:39.355Z,15.60
2023-01-04T13:19:25.859Z,15.60
2023-01-04T13:21:57.949Z,15.50
2023-01-04T13:24:36.283Z,15.50
2023-01-04T13:27:16.362Z,15.40
2023-01-04T13:29:48.243Z,15.40
2023-01-04T13:32:28.835Z,15.40
2023-01-04T13:35:15.997Z,15.30
2023-01-04T13:37:47.736Z,15.30
2023-01-04T13:40:30.762Z,15.30
2023-01-04T13:43:20.200Z,15.30
2023-01-04T13:46:05.799Z,15.30
2023-01-04T13:48:44.000Z,15.30
2023-01-04T13:51:32.213Z,15.30
2023-01-04T13:54:07.141Z,15.20
2023-01-04T13:56:38.026Z,15.20
2023-01-04T13:59:09.360Z,15.20
2023-01-04T14:01:54.818Z,15.20
2023-01-04T14:04:33.177Z,15.20
2023-01-04T14:07:04.381Z,15.20
2023-01-04T14:09:44.526Z,15.20
2023-01-04T14:12:20.872Z,15.20
2023-01-04T14:15:18.631Z,15.10
2023-01-04T14:17:57.406Z,15.10
2023-01-04T14:20:35.110Z,15.10
2023-01-04T14:23:06.767Z,15.10
2023-01-04T14:25:39.903Z,15.10
2023-01-04T14:28:23.413Z,15.20
2023-01-04T14:31:08.647Z,15.20
2023-01-04T14:33:44.921Z,15.20
2023-01-04T14:36:34.070Z,15.10
2023-01-04T14:39:12.997Z,15.10
2023-01-04T14:41:45.474Z,15.10
2023-01-04T14:44:19.379Z,15.10
2023-01-04T14:47:03.261Z,15.20
2023-01-04T14:49:51.578Z,15.10
2023-01-04T14:52:25.482Z,15.20
2023-01-04T14:54:55.813Z,15.20
2023-01-04T14:57:26.121Z,15.20
2023-01-04T14:59:56.556Z,15.20
2023-01-04T15:02:28.731Z,15.20
2023-01-04T15:04:59.160Z,15.20
2023-01-04T15:07:42.571Z,15.20
2023-01-04T15:10:28.275Z,15.10
2023-01-04T15:13:02.273Z,15.00
2023-01-04T15:15:34.825Z,14.90
2023-01-04T15:18:05.686Z,14.80
2023-01-04T15:20:36.289Z,14.70
2023-01-04T15:23:06.607Z,14.60
2023-01-04T15:25:37.156Z,14.60
2023-01-04T15:28:07.817Z,14.50
2023-01-04T15:30:38.157Z,14.40
2023-01-04T15:33:08.973Z,14.30
2023-01-04T15:35:39.536Z,14.30
2023-01-04T15:38:16.032Z,14.30
2023-01-04T15:40:49.252Z,14.30
2023-01-04T15:43:19.627Z,14.30
2023-01-04T15:45:50.019Z,14.30
2023-01-04T15:48:20.376Z,14.30
2023-01-04T15:50:51.142Z,14.30
2023-01-04T15:53:21.430Z,14.30
2023-01-04T15:55:54.128Z,14.30
2023-01-04T15:58:24.509Z,14.30
2023-01-04T16:01:02.591Z,14.30
2023-01-04T16:03:38.051Z,14.40
2023-01-04T16:06:10.340Z,14.40
2023-01-04T16:08:40.763Z,14.40
2023-01-04T16:11:16.766Z,14.40
2023-01-04T16:13:49.141Z,14.40
2023-01-04T16:16:20.825Z,14.40
2023-01-04T16:18:56.612Z,14.40
2023-01-04T16:21:29.125Z,14.50
2023-01-04T16:24:13.019Z,14.40
2023-01-04T16:26:52.608Z,14.40
2023-01-04T16:29:23.202Z,14.40
2023-01-04T16:31:53.495Z,14.40
2023-01-04T16:34:24.162Z,14.50
2023-01-04T16:36:54.486Z,14.50
2023-01-04T16:39:49.534Z,14.50
2023-01-04T16:42:16.495Z,14.50
2023-01-04T16:44:47.469Z,14.50
2023-01-04T16:47:17.918Z,14.50
2023-01-04T16:49:52.833Z,14.50
2023-01-04T16:52:23.469Z,14.50
2023-01-04T16:54:53.931Z,14.50
2023-01-04T16:57:25.647Z,14.50
2023-01-04T16:59:56.208Z,14.50
2023-01-04T17:02:26.609Z,14.60
2023-01-04T17:05:01.264Z,14.60
2023-01-04T17:07:34.479Z,14.60
2023-01-04T17:10:04.911Z,14.60
2023-01-04T17:12:50.475Z,14.60
2023-01-04T17:15:42.615Z,14.70
2023-01-04T17:18:14.359Z,14.60
2023-01-04T17:20:44.857Z,14.60
2023-01-04T17:23:16.805Z,14.60
2023-01-04T17:25:47.126Z,14.60
2023-01-04T17:28:22.862Z,14.60
2023-01-04T17:30:55.394Z,14.60
2023-01-04T17:33:25.732Z,14.60
2023-01-04T17:35:56.313Z,14.60
2023-01-04T17:38:32.908Z,14.60
2023-01-04T17:41:14.488Z,14.60
2023-01-04T17:43:46.342Z,14.60
2023-01-04T17:46:23.033Z,14.60
2023-01-04T17:49:20.984Z,14.60
2023-01-04T17:51:47.585Z,14.60
2023-01-04T17:54:18.267Z,14.60
2023-01-04T17:56:49.164Z,14.60
2023-01-04T17:59:19.843Z,14.60
2023-01-04T18:01:52.915Z,14.60
2023-01-04T18:04:24.023Z,14.60
2023-01-04T18:06:54.513Z,14.60
2023-01-04T18:09:26.794Z,14.60
2023-01-04T18:11:57.730Z,14.60
2023-01-04T18:14:29.341Z,14.50
2023-01-04T18:17:00.032Z,14.60
2023-01-04T18:19:32.927Z,14.60
2023-01-04T18:22:03.439Z,14.60
2023-01-04T18:24:37.129Z,14.50
2023-01-04T18:27:26.169Z,14.60
2023-01-04T18:29:58.840Z,14.60
2023-01-04T18:32:29.851Z,14.60
2023-01-04T18:35:06.087Z,14.50
2023-01-04T18:37:37.935Z,14.50
2023-01-04T18:40:08.904Z,14.60
2023-01-04T18:42:39.545Z,14.60
2023-01-04T18:45:10.979Z,14.60
2023-01-04T18:47:42.178Z,14.60
2023-01-04T18:50:12.769Z,14.60
2023-01-04T18:52:43.052Z,14.60
2023-01-04T18:55:13.884Z,14.60
2023-01-04T18:57:44.265Z,14.50
2023-01-04T19:00:15.718Z,14.60
2023-01-04T19:02:46.054Z,14.60
2023-01-04T19:05:20.993Z,14.60
2023-01-04T19:07:53.818Z,14.60
2023-01-04T19:10:26.062Z,14.60
2023-01-04T19:12:56.508Z,14.60
2023-01-04T19:15:27.455Z,14.60
2023-01-04T19:18:00.579Z,14.60
2023-01-04T19:20:34.851Z,14.60
2023-01-04T19:23:06.085Z,14.60
2023-01-04T19:25:38.286Z,14.60
2023-01-04T19:28:09.623Z,14.50
2023-01-04T19:30:47.435Z,14.60
2023-01-04T19:33:19.591Z,14.50
2023-01-04T19:35:58.539Z,14.50
2023-01-04T19:38:32.707Z,14.50
2023-01-04T19:41:03.992Z,14.50
2023-01-04T19:43:36.540Z,14.40
2023-01-04T19:46:13.309Z,14.50
2023-01-04T19:48:44.650Z,14.40
2023-01-04T19:51:18.011Z,14.40
2023-01-04T19:53:49.182Z,14.40
2023-01-04T19:56:21.121Z,14.40
2023-01-04T19:58:51.505Z,14.40
2023-01-04T20:01:26.417Z,14.40
2023-01-04T20:03:58.408Z,14.30
2023-01-04T20:06:29.004Z,14.30
2023-01-04T20:08:59.274Z,14.30
2023-01-04T20:11:29.669Z,14.30
2023-01-04T20:14:07.971Z,14.30
2023-01-04T20:16:38.499Z,14.40
2023-01-04T20:19:10.475Z,14.40
2023-01-04T20:21:42.117Z,14.50
2023-01-04T20:24:12.507Z,14.50
2023-01-04T20:26:47.367Z,14.60
2023-01-04T20:29:17.926Z,14.70
2023-01-04T20:31:48.313Z,14.80
2023-01-04T20:34:18.581Z,14.80
2023-01-04T20:36:52.159Z,14.80
2023-01-04T20:39:22.433Z,14.90
2023-01-04T20:42:12.000Z,14.90
2023-01-04T20:44:43.285Z,14.90
2023-01-04T20:47:13.942Z,15.00
2023-01-04T20:49:44.202Z,15.00
2023-01-04T20:52:14.426Z,15.10
2023-01-04T20:54:45.362Z,15.10
2023-01-04T20:57:15.704Z,15.10
2023-01-04T20:59:46.974Z,15.20
2023-01-04T21:02:17.817Z,15.20
2023-01-04T21:04:48.662Z,15.20
2023-01-04T21:07:18.903Z,15.20
2023-01-04T21:09:49.755Z,15.20
2023-01-04T21:12:22.804Z,15.20
2023-01-04T21:14:53.142Z,15.20
2023-01-04T21:17:23.794Z,15.30
2023-01-04T21:19:54.058Z,15.30
2023-01-04T21:22:25.576Z,15.30
2023-01-04T21:24:55.825Z,15.40
2023-01-04T21:27:26.067Z,15.40
2023-01-04T21:29:56.840Z,15.40
2023-01-04T21:32:27.972Z,15.40
2023-01-04T21:34:58.936Z,15.40
2023-01-04T21:37:30.811Z,15.50
2023-01-04T21:40:06.435Z,15.50
2023-01-04T21:42:39.007Z,15.50
2023-01-04T21:45:10.287Z,15.50
2023-01-04T21:47:41.262Z,15.50
2023-01-04T21:50:16.751Z,15.50
2023-01-04T21:52:47.560Z,15.40
2023-01-04T21:55:17.928Z,15.40
2023-01-04T21:57:48.811Z,15.50
2023-01-04T22:00:19.233Z,15.50
2023-01-04T22:02:49.737Z,15.50
2023-01-04T22:05:20.616Z,15.50
2023-01-04T22:07:51.248Z,15.40
2023-01-04T22:10:23.864Z,15.50
2023-01-04T22:12:54.604Z,15.50
2023-01-04T22:15:25.024Z,15.40
2023-01-04T22:17:55.396Z,15.40
2023-01-04T22:20:26.407Z,15.40
2023-01-04T22:22:56.695Z,15.40
2023-01-04T22:25:27.019Z,15.50
2023-01-04T22:27:57.272Z,15.30
2023-01-04T22:30:27.622Z,15.30
2023-01-04T22:32:58.440Z,15.40
2023-01-04T22:35:28.775Z,15.30
2023-01-04T22:38:00.133Z,15.30
2023-01-04T22:40:32.025Z,15.30
2023-01-04T22:43:03.335Z,15.30
2023-01-04T22:45:33.803Z,15.40
2023-01-04T22:48:04.207Z,15.50
2023-01-04T22:50:35.162Z,15.80
2023-01-04T22:53:07.371Z,16.10
2023-01-04T22:56:09.400Z,16.20
2023-01-04T22:58:32.871Z,16.30
2023-01-04T23:01:03.324Z,16.20
2023-01-04T23:03:39.926Z,16.10
2023-01-04T23:06:14.587Z,16.00
2023-01-04T23:08:45.800Z,16.10
2023-01-04T23:11:21.331Z,16.30
2023-01-04T23:13:53.903Z,16.50
2023-01-04T23:16:31.585Z,16.70
2023-01-04T23:19:04.673Z,16.80
2023-01-04T23:21:37.970Z,16.90
2023-01-04T23:24:09.787Z,17.00
2023-01-04T23:26:40.301Z,17.40
2023-01-04T23:29:12.928Z,17.80
2023-01-04T23:31:44.277Z,18.30
2023-01-04T23:34:16.374Z,18.70
2023-01-04T23:36:46.881Z,18.90
2023-01-04T23:39:18.770Z,19.10
2023-01-04T23:41:50.947Z,19.20
2023-01-04T23:44:27.829Z,19.40
2023-01-04T23:46:58.906Z,19.40
2023-01-04T23:49:32.815Z,19.60
2023-01-04T23:52:05.393Z,19.80
2023-01-04T23:54:37.235Z,19.80
2023-01-04T23:57:12.922Z,19.70
2023-01-04T23:59:43.813Z,19.40
